Time;durP1;ratioP1;P1;durP2;ratioP2;P2;SDS_P1;SDS_P2;PMS_P1;PMS_P2;Temp;Humidity;BMP_temperature;BMP_pressure;BME280_temperature;BME280_humidity;BME280_pressure;Samples;Min_cycle;Max_cycle;Signal;HPM_P1;HPM_P2
2023/01/28 00:02:25;;;;;;;;;;;2.00;99.90;;;;;;4980435;28;20011;-85
2023/01/28 00:04:51;;;;;;;17.83;10.05;;;2.00;99.90;;;;;;4979780;29;19907;-85
2023/01/28 00:07:18;;;;;;;;;;;2.00;99.90;;;;;;4979687;29;20115;-83
2023/01/28 00:09:43;;;;;;;17.27;8.85;;;2.10;99.90;;;;;;4979580;29;19930;-84
2023/01/28 00:12:09;;;;;;;;;;;1.90;99.90;;;;;;4979878;28;20007;-84
2023/01/28 00:14:35;;;;;;;13.48;7.10;;;2.20;99.90;;;;;;4979108;29;19910;-85
2023/01/28 00:17:03;;;;;;;;;;;2.20;99.90;;;;;;4979964;28;20027;-83
2023/01/28 00:19:29;;;;;;;15.77;8.93;;;2.20;99.90;;;;;;4979802;29;19906;-84
2023/01/28 00:21:55;;;;;;;;;;;2.20;99.90;;;;;;4979955;28;20043;-84
2023/01/28 00:24:21;;;;;;;17.30;7.97;;;2.20;99.90;;;;;;4978272;29;19930;-84
2023/01/28 00:26:46;;;;;;;;;;;2.20;99.90;;;;;;4979532;28;20083;-85
2023/01/28 00:29:12;;;;;;;15.73;7.78;;;2.20;99.90;;;;;;4979261;28;19910;-85
2023/01/28 00:31:39;;;;;;;;;;;2.30;99.90;;;;;;4979464;28;20035;-84
2023/01/28 00:34:05;;;;;;;15.98;7.82;;;2.40;99.90;;;;;;4978590;29;19910;-83
2023/01/28 00:36:32;;;;;;;14.50;7.35;;;2.50;99.90;;;;;;4977942;29;20016;-84
2023/01/28 00:38:59;;;;;;;14.55;7.28;;;2.40;99.90;;;;;;4978770;28;20028;-82
2023/01/28 00:41:27;;;;;;;15.68;7.07;;;2.40;99.90;;;;;;4978304;28;20031;-84
2023/01/28 00:43:53;;;;;;;14.30;7.32;;;2.50;99.90;;;;;;4979116;28;20062;-83
2023/01/28 00:46:21;;;;;;;12.13;6.80;;;2.40;99.90;;;;;;4977498;29;20042;-84
2023/01/28 00:48:47;;;;;;;12.95;6.82;;;2.50;99.90;;;;;;4978594;28;20015;-83
2023/01/28 00:51:16;;;;;;;16.70;7.20;;;2.60;99.90;;;;;;4978870;29;20035;-84
2023/01/28 00:53:42;;;;;;;13.88;7.57;;;2.90;99.90;;;;;;4978683;28;20060;-84
2023/01/28 00:56:13;;;;;;;14.65;7.80;;;2.50;99.90;;;;;;4980015;28;20079;-83
2023/01/28 00:58:40;;;;;;;12.85;8.02;;;2.40;99.90;;;;;;4980712;28;20104;-84
2023/01/28 01:01:08;;;;;;;17.30;8.45;;;2.30;99.90;;;;;;4980820;28;20027;-84
2023/01/28 01:03:34;;;;;;;14.75;8.45;;;2.30;99.90;;;;;;4980866;28;20008;-82
2023/01/28 01:05:59;;;;;;;;;;;2.30;99.90;;;;;;4980863;29;20082;-84
2023/01/28 01:08:33;;;;;;;35.88;17.88;;;2.30;99.90;;;;;;4981117;28;19901;-80
2023/01/28 01:11:00;;;;;;;36.78;19.58;;;2.40;99.90;;;;;;4980800;28;20023;-85
2023/01/28 01:13:26;;;;;;;38.53;21.25;;;2.10;99.90;;;;;;4980149;28;20031;-88
2023/01/28 01:16:06;;;;;;;;;;;2.10;99.90;;;;;;4980205;28;20019;-84
2023/01/28 01:18:33;;;;;;;36.03;19.98;;;2.10;99.90;;;;;;4980506;28;19895;-85
2023/01/28 01:20:59;;;;;;;38.95;21.15;;;2.00;99.90;;;;;;4980428;28;20031;-84
2023/01/28 01:23:29;;;;;;;41.65;22.10;;;2.00;99.90;;;;;;4980324;28;20043;-85
2023/01/28 01:25:55;;;;;;;35.75;20.63;;;2.00;99.90;;;;;;4957147;29;20032;-82
2023/01/28 01:28:21;;;;;;;;;;;2.00;99.90;;;;;;4954209;29;20024;-81
2023/01/28 01:30:47;;;;;;;32.97;19.20;;;2.00;99.90;;;;;;4959156;29;19915;-84
2023/01/28 01:33:14;;;;;;;36.58;19.95;;;1.90;99.90;;;;;;4961359;29;20032;-84
2023/01/28 01:35:40;;;;;;;35.47;20.48;;;2.10;99.90;;;;;;4960363;29;20032;-84
2023/01/28 01:38:06;;;;;;;;;;;2.00;99.90;;;;;;4960945;29;20024;-85
2023/01/28 01:40:32;;;;;;;19.65;9.70;;;2.20;99.90;;;;;;4959605;29;19907;-84
2023/01/28 01:42:58;;;;;;;;;;;2.10;99.90;;;;;;4956389;29;20047;-83
2023/01/28 01:45:25;;;;;;;13.77;7.63;;;2.10;99.90;;;;;;4956052;29;19911;-82
2023/01/28 01:48:00;;;;;;;14.38;7.85;;;2.10;99.90;;;;;;4955333;29;20023;-83
2023/01/28 01:50:32;;;;;;;14.30;7.25;;;2.10;99.90;;;;;;4956136;29;20034;-82
2023/01/28 01:53:05;;;;;;;16.35;7.47;;;2.60;99.90;;;;;;4954563;29;20039;-82
2023/01/28 01:55:34;;;;;;;16.52;9.35;;;2.20;99.90;;;;;;4956336;29;20039;-83
2023/01/28 01:58:05;;;;;;;19.92;10.85;;;2.30;99.90;;;;;;4955645;29;20515;-83
2023/01/28 02:00:31;;;;;;;27.05;13.80;;;2.30;99.90;;;;;;4954933;29;20067;-83
2023/01/28 02:02:57;;;;;;;;;;;2.20;99.90;;;;;;4956305;29;20031;-82
2023/01/28 02:05:24;;;;;;;19.25;11.18;;;2.20;99.90;;;;;;4978063;29;19938;-83
2023/01/28 02:08:19;;;;;;;23.25;12.20;;;2.30;99.90;;;;;;4981512;29;20041;-84
2023/01/28 02:10:40;;;;;;;18.67;10.38;;;2.20;99.90;;;;;;4981388;28;20064;-84
2023/01/28 02:13:06;;;;;;;;;;;2.20;99.90;;;;;;4981348;29;20031;-84
2023/01/28 02:15:33;;;;;;;11.75;6.30;;;2.20;99.90;;;;;;4980638;28;19903;-84
2023/01/28 02:17:59;;;;;;;13.38;7.03;;;2.20;99.90;;;;;;4979897;29;20051;-84
2023/01/28 02:20:29;;;;;;;;;;;2.30;99.90;;;;;;4980561;29;20027;-83
2023/01/28 02:22:55;;;;;;;12.85;7.05;;;2.20;99.90;;;;;;4980895;28;19942;-84
2023/01/28 02:25:20;;;;;;;;;;;2.20;99.90;;;;;;4980185;29;20051;-84
2023/01/28 02:28:08;;;;;;;14.45;7.90;;;2.10;99.90;;;;;;4979453;28;19929;-83
2023/01/28 03:38:57;;;;;;;17.85;9.30;;;2.10;99.90;;;;;;4980552;29;20029;-85
2023/01/28 03:41:25;;;;;;;10.18;5.68;;;1.90;99.90;;;;;;4980794;28;20038;-84
2023/01/28 03:43:52;;;;;;;13.13;6.60;;;2.20;99.90;;;;;;4997181;28;20015;-85
2023/01/28 03:46:18;;;;;;;13.82;6.82;;;2.30;99.90;;;;;;4979608;28;20039;-84
2023/01/28 03:48:45;;;;;;;14.70;7.30;;;2.30;99.90;;;;;;4980447;28;20028;-83
2023/01/28 03:51:11;;;;;;;17.02;8.75;;;2.20;99.90;;;;;;4979907;28;20059;-85
2023/01/28 03:53:39;;;;;;;18.13;9.50;;;2.20;99.90;;;;;;4980630;28;20018;-85
2023/01/28 03:56:05;;;;;;;17.80;8.02;;;2.30;99.90;;;;;;4979507;29;20003;-84
2023/01/28 03:58:52;;;;;;;16.48;8.20;;;2.00;99.90;;;;;;4979155;28;20054;-85
2023/01/28 04:01:19;;;;;;;13.88;7.75;;;2.20;99.90;;;;;;4980130;28;20527;-84
2023/01/28 04:03:45;;;;;;;12.20;7.22;;;2.20;99.90;;;;;;4979925;29;20054;-85
2023/01/28 04:06:11;;;;;;;;;;;2.10;99.90;;;;;;4980313;28;20011;-85
2023/01/28 04:08:37;;;;;;;14.25;7.57;;;2.10;99.90;;;;;;4979854;29;19992;-85
2023/01/28 04:11:15;;;;;;;;;;;2.10;99.90;;;;;;4980518;29;20086;-84
2023/01/28 04:13:47;;;;;;;11.80;5.82;;;2.10;99.90;;;;;;4979901;29;19910;-85
2023/01/28 04:16:15;;;;;;;10.88;5.45;;;2.10;99.90;;;;;;4979085;29;20027;-85
2023/01/28 04:18:42;;;;;;;11.35;6.38;;;2.30;99.90;;;;;;4979621;28;20039;-85
2023/01/28 04:21:08;;;;;;;9.82;5.70;;;2.30;99.90;;;;;;4995113;28;20082;-82
2023/01/28 04:23:35;;;;;;;10.82;6.25;;;2.30;99.90;;;;;;4979656;28;20023;-85
2023/01/28 04:26:02;;;;;;;10.30;5.20;;;2.40;99.90;;;;;;4979347;28;20082;-85
2023/01/28 04:28:29;;;;;;;12.45;6.55;;;2.40;99.90;;;;;;4994681;28;20019;-84
2023/01/28 04:30:55;;;;;;;10.80;5.93;;;2.40;99.90;;;;;;4978552;29;20035;-85
2023/01/28 04:33:21;;;;;;;;;;;2.40;99.90;;;;;;4979767;29;20029;-84
2023/01/28 04:35:47;;;;;;;11.60;6.18;;;2.30;99.90;;;;;;4979661;28;19901;-85
2023/01/28 04:38:13;;;;;;;;;;;2.20;99.90;;;;;;4979316;29;20023;-85
2023/01/28 04:40:39;;;;;;;11.63;6.15;;;2.30;99.90;;;;;;4979773;28;19946;-85
2023/01/28 04:43:04;;;;;;;;;;;2.30;99.90;;;;;;4980487;28;20035;-85
2023/01/28 04:45:30;;;;;;;16.77;8.85;;;2.20;99.90;;;;;;4979779;28;19906;-85
2023/01/28 04:47:56;;;;;;;;;;;2.10;99.90;;;;;;4980579;28;20027;-85
2023/01/28 04:50:22;;;;;;;20.52;11.48;;;1.90;99.90;;;;;;4979586;28;19918;-85
2023/01/28 04:52:48;;;;;;;;;;;2.10;99.90;;;;;;4979979;28;20027;-85
2023/01/28 04:55:14;;;;;;;22.52;13.00;;;2.10;99.90;;;;;;4978913;28;19911;-84
2023/01/28 04:57:39;;;;;;;;;;;2.10;99.90;;;;;;4980078;28;20023;-84
2023/01/28 05:00:06;;;;;;;21.30;10.73;;;2.10;99.90;;;;;;4979932;28;19938;-85
2023/01/28 05:02:32;;;;;;;20.67;11.93;;;1.90;99.90;;;;;;4978167;29;20054;-84
2023/01/28 05:05:00;;;;;;;23.95;12.07;;;2.10;99.90;;;;;;4979299;28;20054;-85
2023/01/28 05:07:26;;;;;;;22.17;13.15;;;2.10;99.90;;;;;;4979681;28;20004;-84
2023/01/28 05:09:52;;;;;;;;;;;2.10;99.90;;;;;;4978933;29;20047;-85
2023/01/28 05:12:19;;;;;;;21.30;12.07;;;2.10;99.90;;;;;;4979171;28;19910;-85
2023/01/28 05:14:45;;;;;;;24.00;12.68;;;1.90;99.90;;;;;;4979408;28;20023;-85
2023/01/28 05:17:11;;;;;;;;;;;2.10;99.90;;;;;;4979484;28;20086;-84
2023/01/28 05:19:37;;;;;;;25.23;12.88;;;2.10;99.90;;;;;;4979069;28;19906;-85
2023/01/28 05:22:02;;;;;;;;;;;2.10;99.90;;;;;;4979431;28;20106;-85
2023/01/28 05:24:28;;;;;;;20.85;12.25;;;2.10;99.90;;;;;;4978505;28;19969;-85
2023/01/28 05:26:54;;;;;;;;;;;2.00;99.90;;;;;;4978459;28;20015;-83
2023/01/28 05:29:20;;;;;;;22.58;11.15;;;2.00;99.90;;;;;;4978415;28;20003;-85
2023/01/28 05:31:46;;;;;;;;;;;2.30;99.90;;;;;;4979421;29;20043;-85
2023/01/28 05:34:13;;;;;;;18.20;10.17;;;2.00;99.90;;;;;;4978453;28;19957;-84
2023/01/28 05:36:40;;;;;;;;;;;2.10;99.90;;;;;;4979501;28;20277;-84
2023/01/28 05:39:06;;;;;;;;;;;2.10;99.90;;;;;;4980226;28;19913;-85
2023/01/28 05:41:32;;;;;;;18.50;9.45;;;2.40;99.90;;;;;;4983377;28;19918;-85
2023/01/28 05:43:58;;;;;;;15.57;8.75;;;2.10;99.90;;;;;;4982348;28;20043;-85
2023/01/28 05:46:24;;;;;;;;;;;2.10;99.90;;;;;;4983295;28;20083;-85
2023/01/28 05:48:50;;;;;;;18.15;10.48;;;2.10;99.90;;;;;;4982199;28;19910;-85
2023/01/28 05:51:16;;;;;;;30.20;15.95;;;2.10;99.90;;;;;;4983129;28;20031;-85
2023/01/28 05:53:42;;;;;;;26.13;14.60;;;2.10;99.90;;;;;;4982945;28;20058;-85
2023/01/28 05:56:08;;;;;;;;;;;2.10;99.90;;;;;;4983184;28;20027;-85
2023/01/28 05:58:34;;;;;;;30.52;15.40;;;2.00;99.90;;;;;;4983343;28;19906;-85
2023/01/28 06:00:59;;;;;;;;;;;1.80;99.90;;;;;;4982517;29;20051;-85
2023/01/28 06:03:25;;;;;;;36.72;19.30;;;2.00;99.90;;;;;;4983122;29;19891;-85
2023/01/28 06:05:51;;;;;;;;;;;2.00;99.90;;;;;;4983448;28;20019;-85
2023/01/28 06:08:17;;;;;;;42.65;21.63;;;1.90;99.90;;;;;;4983337;28;19894;-83
2023/01/28 06:10:43;;;;;;;;;;;2.00;99.90;;;;;;4982822;28;20055;-85
2023/01/28 06:13:09;;;;;;;36.40;19.42;;;2.00;99.90;;;;;;4982036;29;19914;-85
2023/01/28 06:15:34;;;;;;;;;;;1.90;99.90;;;;;;4982982;28;20067;-85
2023/01/28 06:18:00;;;;;;;40.25;21.02;;;1.90;99.90;;;;;;4982892;28;19902;-84
2023/01/28 06:20:26;;;;;;;;;;;2.00;99.90;;;;;;4982910;28;20016;-85
2023/01/28 06:22:52;;;;;;;52.17;22.90;;;2.00;99.90;;;;;;4981661;29;20323;-85
2023/01/28 06:25:18;;;;;;;;;;;2.00;99.90;;;;;;4983429;28;20022;-85
2023/01/28 06:27:45;;;;;;;61.65;31.55;;;1.90;99.90;;;;;;4982542;28;19901;-82
2023/01/28 06:37:57;;;;;;;34.33;18.25;;;1.90;99.90;;;;;;5359618;23;20063;-84
2023/01/28 06:40:24;;;;;;;33.10;18.10;;;1.90;99.90;;;;;;4979601;29;20017;-84
2023/01/28 06:42:50;;;;;;;32.33;18.40;;;2.30;99.90;;;;;;4981803;28;20019;-83
2023/01/28 06:45:16;;;;;;;;;;;2.00;99.90;;;;;;4980576;28;20022;-83
2023/01/28 06:47:42;;;;;;;30.10;16.60;;;1.90;99.90;;;;;;4980065;28;19957;-85
2023/01/28 06:50:08;;;;;;;;;;;1.80;99.90;;;;;;4979377;28;20031;-84
2023/01/28 06:52:34;;;;;;;31.67;15.35;;;2.00;99.90;;;;;;4978016;29;19914;-84
2023/01/28 06:55:00;;;;;;;;;;;2.00;99.90;;;;;;4979178;28;20027;-83
2023/01/28 06:57:26;;;;;;;31.80;17.15;;;2.00;99.90;;;;;;4978729;28;19930;-83
2023/01/28 06:59:52;;;;;;;;;;;2.00;99.90;;;;;;4977911;29;20031;-84
2023/01/28 07:02:18;;;;;;;73.72;36.17;;;1.80;99.90;;;;;;4978454;28;19907;-84
2023/01/28 07:04:44;;;;;;;51.78;27.02;;;2.10;99.90;;;;;;4979318;28;20018;-84
2023/01/28 07:07:09;;;;;;;;;;;2.10;99.90;;;;;;4978794;28;20031;-84
2023/01/28 07:09:35;;;;;;;41.80;21.00;;;2.20;99.90;;;;;;4977891;29;19906;-84
2023/01/28 07:12:04;;;;;;;;;;;2.10;99.90;;;;;;4980693;28;20039;-85
2023/01/28 07:14:30;;;;;;;35.80;17.52;;;2.10;99.90;;;;;;4981445;29;19914;-85
2023/01/28 07:16:56;;;;;;;58.65;26.63;;;2.40;99.90;;;;;;4981054;28;20023;-85
2023/01/28 07:19:22;;;;;;;;;;;1.90;99.90;;;;;;4981283;29;20023;-85
2023/01/28 07:21:48;;;;;;;47.22;22.90;;;2.20;99.90;;;;;;4981415;29;19906;-85
2023/01/28 07:24:13;;;;;;;;;;;2.20;99.90;;;;;;4981646;28;20027;-85
2023/01/28 07:26:39;;;;;;;49.92;22.95;;;2.30;99.90;;;;;;4980183;28;19907;-85
2023/01/28 07:39:49;;;;;;;33.47;19.17;;;2.40;99.90;;;;;;6094421;23;20022;31
2023/01/28 07:42:15;;;;;;;38.25;21.73;;;2.50;99.90;;;;;;4998401;28;20042;-85
2023/01/28 07:44:40;;;;;;;;;;;2.40;99.90;;;;;;5000930;28;20068;-85
2023/01/28 07:47:06;;;;;;;35.00;18.02;;;2.50;99.90;;;;;;4999458;28;19917;-85
2023/01/28 07:49:33;;;;;;;;;;;2.50;99.90;;;;;;5000757;28;20039;-85
2023/01/28 07:51:59;;;;;;;35.22;17.48;;;2.50;99.90;;;;;;4999933;28;19918;-83
2023/01/28 07:54:25;;;;;;;40.17;18.75;;;2.50;99.90;;;;;;5015963;28;20574;-85
2023/01/28 07:56:51;;;;;;;;;;;2.60;99.90;;;;;;4983518;28;20211;-84
2023/01/28 07:59:17;;;;;;;23.38;13.95;;;2.60;99.90;;;;;;4983509;28;19906;-85
2023/01/28 08:01:44;;;;;;;25.45;13.82;;;2.70;99.90;;;;;;4999150;28;20082;-84
2023/01/28 08:04:10;;;;;;;25.63;14.05;;;2.60;99.90;;;;;;4982957;28;20029;-85
2023/01/28 08:06:36;;;;;;;21.45;12.40;;;2.70;99.90;;;;;;5000369;28;20026;-85
2023/01/28 08:09:05;;;;;;;21.00;12.00;;;3.00;99.90;;;;;;4999669;28;20038;-85
2023/01/28 08:11:31;;;;;;;22.10;12.35;;;2.70;99.90;;;;;;5000040;28;20026;-85
2023/01/28 08:13:59;;;;;;;22.17;12.60;;;2.70;99.90;;;;;;4999917;28;20018;-85
2023/01/28 08:16:26;;;;;;;24.13;14.73;;;2.80;99.90;;;;;;4999198;28;20019;-85
2023/01/28 08:18:52;;;;;;;21.70;13.10;;;2.80;99.90;;;;;;4999430;28;20043;-85
2023/01/28 08:21:18;;;;;;;;;;;2.80;99.90;;;;;;5014841;28;20022;-85
2023/01/28 08:23:44;;;;;;;21.38;12.02;;;2.80;99.90;;;;;;4999240;28;19913;-85
2023/01/28 08:26:09;;;;;;;;;;;3.00;99.90;;;;;;4998602;28;20011;-86
2023/01/28 08:28:35;;;;;;;23.73;12.95;;;3.10;99.90;;;;;;4998841;28;19906;-85
2023/01/28 08:31:01;;;;;;;;;;;3.10;99.90;;;;;;4999114;28;20022;-85
2023/01/28 08:33:27;;;;;;;25.45;13.82;;;3.30;99.90;;;;;;5015146;28;19917;-85
2023/01/28 08:35:53;;;;;;;;;;;3.40;99.90;;;;;;5000171;28;20014;-85
2023/01/28 08:38:19;;;;;;;22.88;12.82;;;3.40;99.90;;;;;;4999910;28;19902;-85
2023/01/28 08:40:46;;;;;;;25.40;14.20;;;3.50;99.90;;;;;;4999735;28;20050;-82
2023/01/28 08:43:12;;;;;;;28.50;15.73;;;3.50;99.90;;;;;;5000519;28;20082;-83
2023/01/28 08:45:41;;;;;;;;;;;3.50;99.90;;;;;;5000589;28;20042;-85
2023/01/28 08:48:11;;;;;;;27.10;16.75;;;3.70;99.90;;;;;;4999179;28;19981;-85
2023/01/28 08:50:38;;;;;;;28.83;15.40;;;3.60;99.90;;;;;;5000155;28;20034;-85
2023/01/28 08:53:07;;;;;;;26.63;15.68;;;3.10;99.90;;;;;;4999837;28;20019;-84
2023/01/28 08:55:33;;;;;;;29.90;16.25;;;3.70;99.90;;;;;;4999746;28;20045;-85
2023/01/28 08:58:09;;;;;;;30.13;17.83;;;3.70;99.90;;;;;;5000453;28;20039;-81
2023/01/28 09:00:35;;;;;;;29.13;16.73;;;3.80;99.90;;;;;;5000355;28;20030;-82
2023/01/28 09:03:01;;;;;;;;;;;3.60;99.90;;;;;;5000242;28;20062;-84
2023/01/28 09:05:28;;;;;;;27.02;15.68;;;3.70;99.90;;;;;;4999863;28;19934;-84
2023/01/28 09:07:54;;;;;;;90.55;46.10;;;3.80;99.90;;;;;;5000116;28;20087;-83
2023/01/28 09:10:20;;;;;;;;;;;3.80;99.90;;;;;;5000468;28;20015;-84
2023/01/28 09:12:47;;;;;;;31.67;18.27;;;3.60;99.90;;;;;;4999745;28;19926;-84
2023/01/28 09:15:13;;;;;;;23.50;14.23;;;3.40;99.90;;;;;;4999310;28;20043;-83
2023/01/28 09:17:39;;;;;;;;;;;3.80;99.90;;;;;;5000345;28;20096;-85
2023/01/28 09:20:06;;;;;;;25.92;14.25;;;3.80;99.90;;;;;;4999561;28;19914;-85
2023/01/28 09:22:32;;;;;;;25.48;14.82;;;3.80;99.90;;;;;;4999124;28;20042;-85
2023/01/28 09:25:01;;;;;;;26.00;14.98;;;3.80;99.90;;;;;;4999461;28;20079;-84
2023/01/28 09:27:27;;;;;;;29.20;15.13;;;3.90;99.90;;;;;;4999099;28;20015;-85
2023/01/28 09:29:52;;;;;;;;;;;3.80;99.90;;;;;;5000191;28;20018;-85
2023/01/28 09:32:18;;;;;;;39.95;22.48;;;3.80;99.90;;;;;;4999855;28;19902;-82
2023/01/28 09:34:44;;;;;;;;;;;3.90;99.90;;;;;;5015729;28;20027;-82
2023/01/28 09:37:10;;;;;;;40.42;26.10;;;4.10;99.90;;;;;;4999953;28;19910;-84
2023/01/28 09:39:37;;;;;;;33.75;19.23;;;4.10;99.90;;;;;;4999875;28;20043;-82
2023/01/28 09:42:29;;;;;;;34.63;22.88;;;4.10;99.90;;;;;;4999241;28;20055;-83
2023/01/28 09:45:01;;;;;;;31.80;20.70;;;4.20;99.90;;;;;;4999800;28;20023;-82
2023/01/28 09:47:31;;;;;;;34.97;22.75;;;4.20;99.90;;;;;;4999795;28;20030;-83
2023/01/28 09:50:01;;;;;;;31.30;19.35;;;4.40;99.90;;;;;;4999958;28;20046;-83
2023/01/28 09:52:33;;;;;;;28.83;18.02;;;4.30;99.90;;;;;;4999830;28;20497;-83
2023/01/28 09:55:06;;;;;;;31.92;18.92;;;4.40;99.90;;;;;;4999945;28;20015;-85
2023/01/28 09:57:42;;;;;;;28.67;16.98;;;4.50;99.90;;;;;;4999452;28;20027;-84
2023/01/28 10:00:16;;;;;;;31.50;18.08;;;4.40;99.90;;;;;;4999463;28;20007;-83
2023/01/28 10:03:09;;;;;;;29.40;17.50;;;4.30;99.90;;;;;;4999728;28;20038;-85
2023/01/28 10:05:59;;;;;;;40.65;23.27;;;4.40;99.90;;;;;;4999356;28;20027;-85
2023/01/28 10:09:08;;;;;;;33.08;19.00;;;4.60;99.90;;;;;;4999459;28;20055;-85
2023/01/28 10:11:57;;;;;;;33.47;18.60;;;4.70;99.90;;;;;;4998860;28;20026;-85
2023/01/28 10:14:30;;;;;;;29.45;17.52;;;4.70;99.90;;;;;;4999413;28;20015;-83
2023/01/28 10:17:18;;;;;;;33.42;19.70;;;4.80;99.90;;;;;;4999199;28;20011;-84
2023/01/28 10:20:01;;;;;;;26.45;15.65;;;5.00;99.90;;;;;;4999458;28;20038;-85
2023/01/28 10:22:33;;;;;;;28.65;15.95;;;5.00;99.90;;;;;;4999575;28;20030;-85
2023/01/28 10:25:05;;;;;;;26.70;16.17;;;5.20;99.90;;;;;;4999710;28;20050;-82
2023/01/28 10:27:32;;;;;;;27.33;16.63;;;5.00;99.90;;;;;;5002690;28;20011;-84
2023/01/28 10:30:19;;;;;;;45.08;24.40;;;5.10;99.90;;;;;;5002218;28;20017;-83
2023/01/28 10:33:24;;;;;;;33.05;18.90;;;5.10;99.90;;;;;;5002501;28;20504;-85
2023/01/28 10:35:50;;;;;;;31.52;17.27;;;5.20;99.90;;;;;;5002841;28;20071;-84
2023/01/28 10:38:19;;;;;;;;;;;5.10;99.90;;;;;;5018818;28;20027;-85
2023/01/28 10:40:48;;;;;;;25.05;14.85;;;5.20;99.90;;;;;;5002651;28;19940;-85
2023/01/28 10:43:20;;;;;;;25.48;15.13;;;5.20;99.90;;;;;;5002655;28;20051;-84
2023/01/28 10:46:02;;;;;;;23.75;13.95;;;5.30;99.90;;;;;;5001980;28;20030;-84
2023/01/28 10:49:02;;;;;;;25.52;14.50;;;5.30;99.90;;;;;;5002555;28;20038;-84
2023/01/28 10:51:36;;;;;;;25.02;14.20;;;5.20;99.90;;;;;;5002407;28;20031;-83
2023/01/28 10:54:03;;;;;;;28.92;16.75;;;5.20;99.90;;;;;;5002470;28;20075;-84
2023/01/28 10:56:34;;;;;;;24.45;15.00;;;5.20;99.90;;;;;;5002263;28;20026;-84
2023/01/28 10:59:22;;;;;;;32.60;19.90;;;5.30;99.90;;;;;;5001766;28;20019;-84
2023/01/28 11:01:49;;;;;;;27.77;16.25;;;5.20;99.90;;;;;;5001736;28;20026;-85
2023/01/28 11:04:22;;;;;;;29.17;13.95;;;5.20;99.90;;;;;;5002609;28;20015;-85
2023/01/28 11:07:19;;;;;;;32.28;16.92;;;5.10;99.90;;;;;;5002073;28;20030;-83
2023/01/28 11:09:48;;;;;;;27.35;15.48;;;5.20;99.90;;;;;;5002232;28;20011;-84
2023/01/28 11:12:25;;;;;;;25.27;13.80;;;5.20;99.90;;;;;;5002279;28;20054;-84
2023/01/28 11:14:56;;;;;;;25.58;14.98;;;5.20;99.90;;;;;;5017815;28;20014;-84
2023/01/28 11:17:28;;;;;;;39.50;22.30;;;5.20;99.90;;;;;;5001995;28;20023;-86
2023/01/28 11:19:57;;;;;;;54.63;30.67;;;5.20;99.90;;;;;;5002025;28;20074;-85
2023/01/28 11:22:42;;;;;;;28.20;16.17;;;5.20;99.90;;;;;;5001416;28;20046;-85
2023/01/28 11:25:33;;;;;;;23.95;13.40;;;5.30;99.90;;;;;;5002059;28;20026;-85
2023/01/28 11:43:37;;;;;;;29.00;16.13;;;4.90;99.90;;;;;;5868871;23;20945;-84
2023/01/28 11:46:03;;;;;;;;;;;4.80;99.90;;;;;;5021693;28;20022;-80
2023/01/28 11:48:50;;;;;;;38.38;22.98;;;4.90;99.90;;;;;;5021473;28;19900;-79
2023/01/28 11:52:13;;;;;;;35.55;22.40;;;4.80;99.90;;;;;;5020715;28;20034;-79
2023/01/28 11:54:58;;;;;;;22.92;13.80;;;5.00;99.90;;;;;;5000923;28;20019;-78
2023/01/28 11:57:30;;;;;;;32.05;17.45;;;4.90;99.90;;;;;;5000936;28;20027;-80
2023/01/28 12:00:11;;;;;;;26.83;16.67;;;4.90;99.90;;;;;;5006680;28;20038;-80
2023/01/28 12:02:49;;;;;;;27.13;16.70;;;4.90;99.90;;;;;;5021188;28;20050;-80
2023/01/28 12:05:31;;;;;;;25.02;15.57;;;5.00;99.90;;;;;;5021101;28;20014;-79
2023/01/28 12:08:16;;;;;;;24.15;13.82;;;5.20;99.90;;;;;;5020928;28;20022;-78
2023/01/28 12:10:50;;;;;;;28.52;17.60;;;5.30;99.90;;;;;;5020420;28;20032;-79
2023/01/28 12:13:23;;;;;;;29.35;17.38;;;5.30;99.90;;;;;;5020340;28;20018;-80
2023/01/28 12:15:59;;;;;;;27.85;18.10;;;5.40;99.90;;;;;;5020367;28;20018;-79
2023/01/28 12:18:56;;;;;;;22.73;13.65;;;5.40;99.90;;;;;;5020431;28;20015;-79
2023/01/28 12:21:43;;;;;;;30.08;17.65;;;5.40;99.90;;;;;;5020849;28;20018;-80
2023/01/28 12:24:15;;;;;;;;;;;5.50;99.90;;;;;;5021188;28;20019;-79
2023/01/28 12:27:00;;;;;;;34.80;18.42;;;5.30;99.90;;;;;;5020192;28;19914;-79
2023/01/28 16:02:56;;;;;;;185.48;89.07;;;3.70;99.90;;;;;;5016568;28;20062;-85
2023/01/28 16:05:32;;;;;;;108.68;51.83;;;3.60;99.90;;;;;;5019128;28;20021;-85
2023/01/28 16:08:07;;;;;;;36.72;18.75;;;3.60;99.90;;;;;;5018411;28;20029;-85
2023/01/28 16:10:33;;;;;;;40.33;20.35;;;3.60;99.90;;;;;;5018488;28;20038;-85
2023/01/28 16:13:18;;;;;;;29.95;15.02;;;3.60;99.90;;;;;;5019496;28;20026;-84
2023/01/28 16:15:50;;;;;;;31.38;17.08;;;3.70;99.90;;;;;;5019475;28;20037;-84
2023/01/28 16:18:28;;;;;;;32.45;14.32;;;3.60;99.90;;;;;;5018971;28;20034;-85
2023/01/28 16:20:54;;;;;;;44.03;18.92;;;3.70;99.90;;;;;;5018620;28;20023;-85
2023/01/28 16:23:24;;;;;;;45.78;19.30;;;3.50;99.90;;;;;;5018618;28;20018;-85
2023/01/28 16:26:21;;;;;;;39.70;17.23;;;3.60;99.90;;;;;;5019706;28;20048;-85
2023/01/28 17:49:23;;;;;;;38.05;19.63;;;3.30;99.90;;;;;;5006519;23;20043;-85
2023/01/28 17:51:51;;;;;;;112.30;60.50;;;3.30;99.90;;;;;;5004727;28;20039;-85
2023/01/28 17:54:18;;;;;;;81.75;41.85;;;3.20;99.90;;;;;;5004659;28;20031;-84
2023/01/28 17:56:44;;;;;;;76.15;37.60;;;3.20;99.90;;;;;;5003916;28;20061;-85
2023/01/28 17:59:10;;;;;;;;;;;3.10;99.90;;;;;;5005539;28;20026;-85
2023/01/28 18:01:36;;;;;;;44.30;26.70;;;3.00;99.90;;;;;;5003938;28;19910;-85
2023/01/28 18:04:03;;;;;;;41.25;18.55;;;3.10;99.90;;;;;;5004315;28;20023;-84
2023/01/28 18:06:31;;;;;;;50.20;27.83;;;3.20;99.90;;;;;;5004518;28;20061;-84
2023/01/28 18:08:58;;;;;;;51.78;26.88;;;3.20;99.90;;;;;;5003530;28;20014;-85
2023/01/28 18:11:25;;;;;;;69.45;36.72;;;3.10;99.90;;;;;;5004341;28;20042;-84
2023/01/28 18:13:51;;;;;;;67.72;35.00;;;3.20;99.90;;;;;;5004668;28;20007;-85
2023/01/28 18:16:19;;;;;;;;;;;2.90;99.90;;;;;;5005001;28;20013;-85
2023/01/28 18:18:47;;;;;;;97.07;40.47;;;3.10;99.90;;;;;;5004767;28;19921;-84
2023/01/28 18:21:36;;;;;;;115.85;45.90;;;2.90;99.90;;;;;;5004481;28;20077;-84
2023/01/28 18:24:02;;;;;;;76.20;35.72;;;3.30;99.90;;;;;;5005761;28;20047;-85
2023/01/28 18:26:28;;;;;;;75.75;36.35;;;3.00;99.90;;;;;;5004141;28;20054;-84
2023/01/28 18:28:54;;;;;;;;;;;3.00;99.90;;;;;;5004556;28;20057;-85
2023/01/28 18:31:20;;;;;;;74.88;33.83;;;3.00;99.90;;;;;;5004317;28;19910;-84
2023/01/28 18:33:46;;;;;;;64.45;32.03;;;3.00;99.90;;;;;;5004966;28;20029;-85
2023/01/28 18:36:13;;;;;;;61.95;31.67;;;2.90;99.90;;;;;;5005034;28;20049;-85
2023/01/28 18:38:39;;;;;;;66.13;34.45;;;3.00;99.90;;;;;;5004384;28;20042;-84
2023/01/28 18:41:05;;;;;;;79.75;40.63;;;2.90;99.90;;;;;;5004357;28;20067;-84
2023/01/28 18:43:31;;;;;;;;;;;2.90;99.90;;;;;;5004944;28;20047;-84
2023/01/28 18:45:59;;;;;;;72.88;34.55;;;2.90;99.90;;;;;;5002154;28;19957;-84
2023/01/28 18:48:26;;;;;;;40.05;21.05;;;2.90;99.90;;;;;;5001540;28;20075;-85
2023/01/28 18:50:54;;;;;;;33.17;16.40;;;3.00;99.90;;;;;;4985282;28;20019;-85
2023/01/28 18:53:25;;;;;;;43.40;18.83;;;2.80;99.90;;;;;;5001117;28;20019;-84
2023/01/28 18:55:52;;;;;;;30.15;15.30;;;3.00;99.90;;;;;;5000369;28;20019;-85
2023/01/28 18:58:18;;;;;;;27.63;14.02;;;2.80;99.90;;;;;;5000800;28;20015;-84
2023/01/28 19:00:45;;;;;;;25.98;13.85;;;3.10;99.90;;;;;;4999380;28;20087;-85
2023/01/28 19:03:12;;;;;;;;;;;3.10;99.90;;;;;;5001575;28;20027;-84
2023/01/28 19:05:39;;;;;;;21.13;11.55;;;3.00;99.90;;;;;;5000502;28;20387;-84
2023/01/28 19:08:07;;;;;;;22.77;11.32;;;3.00;99.90;;;;;;4999950;28;20011;-83
2023/01/28 19:10:34;;;;;;;26.35;13.55;;;3.00;99.90;;;;;;4999408;28;20015;-83
2023/01/28 19:13:00;;;;;;;33.67;15.68;;;3.00;99.90;;;;;;5000165;28;20099;-83
2023/01/28 19:15:26;;;;;;;;;;;3.10;99.90;;;;;;4999264;28;20055;-83
2023/01/28 19:17:52;;;;;;;42.58;17.98;;;3.10;99.90;;;;;;4999096;28;19908;-84
2023/01/28 19:20:18;;;;;;;53.10;23.95;;;3.00;99.90;;;;;;5000583;28;20047;-83
2023/01/28 19:22:47;;;;;;;62.03;25.15;;;3.00;99.90;;;;;;4999386;28;20042;-84
2023/01/28 19:25:13;;;;;;;54.05;23.52;;;3.00;99.90;;;;;;5000289;28;20074;-85
2023/01/28 19:27:39;;;;;;;62.70;27.95;;;3.00;99.90;;;;;;5000327;28;20017;-84
2023/01/28 19:30:07;;;;;;;39.88;21.13;;;3.00;99.90;;;;;;4999346;28;20038;-84
2023/01/28 19:32:33;;;;;;;49.15;28.08;;;3.10;99.90;;;;;;5000078;28;20042;-84
2023/01/28 19:34:59;;;;;;;54.25;30.30;;;3.00;99.90;;;;;;5000688;28;20042;-85
2023/01/28 19:37:25;;;;;;;;;;;2.90;99.90;;;;;;5000419;28;20021;-84
2023/01/28 19:39:51;;;;;;;58.97;29.63;;;3.10;99.90;;;;;;5000189;28;19894;-83
2023/01/28 19:42:17;;;;;;;62.80;26.85;;;2.90;99.90;;;;;;5000811;28;20022;-83
2023/01/28 19:44:43;;;;;;;68.57;28.15;;;2.80;99.90;;;;;;5001030;28;20035;-80
2023/01/28 19:47:09;;;;;;;;;;;3.00;99.90;;;;;;5001975;28;20018;-80
2023/01/28 19:49:34;;;;;;;43.38;20.35;;;2.90;99.90;;;;;;5002024;28;19929;-81